Terminal Aerodrome Forecast
Issued by NWS Pocatello, ID

Home | Current Version | Previous Version | Text Only | Print | Product List | Glossary On
Versions: 1 2 3 4 5 6 7 8 9 10 11 12 13 14
039
FTUS45 KPIH 051504 AAB
TAFIDA
TAF AMD
KIDA 051504Z 0515/0612 36010KT P6SM SCT250 WS008/17015KT
     FM051800 18007KT P6SM FEW110 BKN250
     FM052100 22010G18KT P6SM SCT060 SCT110 BKN200
     FM060300 18008KT P6SM VCTS SCT060CB OVC150=

USA.gov is the U.S. government's official web portal to all federal, state and local government web resources and services.